createdAt,value
2019-01-13T00:02:28.366Z,31.55
2019-01-13T00:04:57.601Z,29.87
2019-01-13T00:07:26.824Z,33.92
2019-01-13T00:09:57.173Z,31.05
2019-01-13T00:12:26.770Z,29.42
2019-01-13T00:14:55.994Z,33.88
2019-01-13T00:17:27.724Z,29.57
2019-01-13T00:19:57.160Z,29.80
2019-01-13T00:22:26.640Z,32.88
2019-01-13T00:25:00.786Z,36.00
2019-01-13T00:27:30.958Z,34.33
2019-01-13T00:30:01.892Z,35.45
2019-01-13T00:32:31.065Z,33.75
2019-01-13T00:35:02.590Z,43.08
2019-01-13T00:37:33.270Z,36.95
2019-01-13T00:40:04.455Z,45.25
2019-01-13T00:42:33.966Z,34.05
2019-01-13T00:45:05.078Z,38.67
2019-01-13T00:47:34.318Z,28.32
2019-01-13T00:50:03.876Z,31.15
2019-01-13T00:52:33.082Z,38.95
2019-01-13T00:55:02.231Z,35.50
2019-01-13T00:57:31.439Z,42.55
2019-01-13T01:00:00.589Z,37.03
2019-01-13T01:02:29.735Z,35.03
2019-01-13T01:04:58.949Z,37.03
2019-01-13T01:07:28.153Z,34.35
2019-01-13T01:09:57.297Z,40.20
2019-01-13T01:12:26.440Z,31.25
2019-01-13T01:14:55.647Z,31.50
2019-01-13T01:17:24.820Z,33.55
2019-01-13T01:19:54.525Z,37.63
2019-01-13T01:22:23.752Z,35.73
2019-01-13T01:24:52.957Z,30.70
2019-01-13T01:27:22.123Z,34.03
2019-01-13T01:29:51.264Z,34.70
2019-01-13T01:32:20.423Z,33.20
2019-01-13T01:34:49.850Z,31.52
2019-01-13T01:37:19.694Z,33.75
2019-01-13T01:39:48.896Z,33.20
2019-01-13T01:42:18.072Z,35.68
2019-01-13T01:44:47.350Z,33.10
2019-01-13T01:47:16.600Z,29.72
2019-01-13T01:49:45.904Z,31.80
2019-01-13T01:52:15.197Z,34.27
2019-01-13T01:54:44.312Z,32.33
2019-01-13T01:57:15.990Z,40.88
2019-01-13T01:59:45.702Z,37.38
2019-01-13T02:02:15.009Z,34.92
2019-01-13T02:04:44.241Z,32.08
2019-01-13T02:07:13.399Z,31.37
2019-01-13T02:09:42.789Z,43.50
2019-01-13T02:12:12.029Z,37.20
2019-01-13T02:14:41.203Z,33.25
2019-01-13T02:17:10.359Z,33.73
2019-01-13T02:19:39.591Z,32.38
2019-01-13T02:22:08.786Z,30.37
2019-01-13T02:24:37.985Z,29.75
2019-01-13T02:27:07.597Z,26.37
2019-01-13T02:29:36.893Z,29.42
2019-01-13T02:32:06.062Z,28.15
2019-01-13T02:34:35.210Z,36.00
2019-01-13T02:37:04.363Z,32.73
2019-01-13T02:39:33.607Z,28.55
2019-01-13T02:42:02.717Z,28.92
2019-01-13T02:44:31.940Z,29.98
2019-01-13T02:47:01.110Z,31.37
2019-01-13T02:49:30.235Z,29.18
2019-01-13T02:51:59.519Z,28.17
2019-01-13T02:54:28.690Z,29.20
2019-01-13T02:56:57.837Z,28.77
2019-01-13T02:59:27.103Z,28.52
2019-01-13T03:01:56.250Z,30.75
2019-01-13T03:04:25.496Z,27.05
2019-01-13T03:06:54.660Z,26.82
2019-01-13T03:09:23.803Z,31.85
2019-01-13T03:11:53.215Z,32.53
2019-01-13T03:14:22.385Z,28.47
2019-01-13T03:16:51.625Z,27.62
2019-01-13T03:19:20.798Z,22.60
2019-01-13T03:21:49.994Z,25.75
2019-01-13T03:24:19.242Z,25.88
2019-01-13T03:26:48.338Z,24.90
2019-01-13T03:29:17.492Z,22.32
2019-01-13T03:31:46.723Z,23.85
2019-01-13T03:34:15.880Z,23.35
2019-01-13T03:36:45.103Z,21.52
2019-01-13T03:39:14.402Z,21.93
2019-01-13T03:41:43.681Z,20.70
2019-01-13T03:44:12.839Z,19.67
2019-01-13T03:46:42.116Z,20.23
2019-01-13T03:49:11.475Z,18.77
2019-01-13T03:51:40.593Z,18.20
2019-01-13T03:54:10.050Z,22.30
2019-01-13T03:56:39.302Z,17.73
2019-01-13T03:59:09.828Z,19.55
2019-01-13T04:01:39.060Z,18.50
2019-01-13T04:04:08.317Z,16.17
2019-01-13T04:06:37.546Z,18.75
2019-01-13T04:09:08.701Z,19.45
2019-01-13T04:11:37.868Z,17.62
2019-01-13T04:14:07.074Z,18.15
2019-01-13T04:16:36.441Z,16.20
2019-01-13T04:19:05.605Z,17.85
2019-01-13T04:21:34.766Z,18.50
2019-01-13T04:24:04.046Z,15.35
2019-01-13T04:26:33.232Z,17.25
2019-01-13T04:29:02.444Z,17.73
2019-01-13T04:31:31.633Z,21.75
2019-01-13T04:34:01.374Z,18.07
2019-01-13T04:36:30.602Z,20.48
2019-01-13T04:38:59.830Z,18.92
2019-01-13T04:41:29.046Z,16.55
2019-01-13T04:43:59.565Z,16.77
2019-01-13T04:46:31.736Z,17.90
2019-01-13T04:49:01.036Z,15.90
2019-01-13T04:51:30.238Z,18.25
2019-01-13T04:53:59.408Z,21.65
2019-01-13T04:56:28.545Z,17.40
2019-01-13T04:58:57.763Z,16.50
2019-01-13T05:01:34.173Z,15.53
2019-01-13T05:03:57.854Z,16.82
2019-01-13T05:06:27.123Z,19.27
2019-01-13T05:08:56.322Z,17.92
2019-01-13T05:11:25.500Z,17.42
2019-01-13T05:13:54.625Z,18.48
2019-01-13T05:16:24.907Z,15.98
2019-01-13T05:18:54.053Z,16.35
2019-01-13T05:21:23.233Z,17.57
2019-01-13T05:23:52.525Z,16.95
2019-01-13T05:26:21.711Z,18.90
2019-01-13T05:28:50.954Z,16.93
2019-01-13T05:31:20.253Z,16.93
2019-01-13T05:33:49.456Z,18.10
2019-01-13T05:36:18.610Z,17.17
2019-01-13T05:38:47.750Z,18.12
2019-01-13T05:41:16.983Z,15.88
2019-01-13T05:43:46.140Z,16.20
2019-01-13T05:46:15.301Z,21.02
2019-01-13T05:48:44.491Z,14.30
2019-01-13T05:51:13.783Z,14.70
2019-01-13T05:53:43.029Z,15.08
2019-01-13T05:56:12.231Z,13.50
2019-01-13T05:58:41.476Z,15.23
2019-01-13T06:01:10.601Z,13.38
2019-01-13T06:03:39.975Z,15.85
2019-01-13T06:06:09.189Z,14.85
2019-01-13T06:08:38.439Z,16.50
2019-01-13T06:11:07.691Z,16.48
2019-01-13T06:13:36.882Z,12.95
2019-01-13T06:16:06.103Z,15.38
2019-01-13T06:18:35.372Z,16.73
2019-01-13T06:21:04.573Z,14.87
2019-01-13T06:23:33.777Z,14.60
2019-01-13T06:26:02.904Z,16.55
2019-01-13T06:28:32.077Z,17.75
2019-01-13T06:31:01.251Z,21.00
2019-01-13T06:33:30.387Z,16.82
2019-01-13T06:35:59.627Z,17.95
2019-01-13T06:38:28.857Z,17.65
2019-01-13T06:40:58.170Z,17.92
2019-01-13T06:43:27.355Z,17.50
2019-01-13T06:45:56.485Z,21.10
2019-01-13T06:48:25.692Z,16.35
2019-01-13T06:50:54.880Z,15.70
2019-01-13T06:53:24.062Z,15.70
2019-01-13T06:55:53.220Z,15.50
2019-01-13T06:58:22.411Z,15.70
2019-01-13T07:00:51.581Z,17.55
2019-01-13T07:03:21.364Z,15.85
2019-01-13T07:05:50.607Z,15.05
2019-01-13T07:08:19.734Z,15.00
2019-01-13T07:10:48.950Z,15.18
2019-01-13T07:13:18.230Z,14.03
2019-01-13T07:15:47.394Z,14.45
2019-01-13T07:18:16.525Z,18.00
2019-01-13T07:20:45.684Z,16.77
2019-01-13T07:23:14.944Z,12.70
2019-01-13T07:25:44.494Z,15.75
2019-01-13T07:28:13.729Z,14.50
2019-01-13T07:30:42.986Z,13.48
2019-01-13T07:33:12.192Z,12.28
2019-01-13T07:35:41.359Z,10.75
2019-01-13T07:38:10.586Z,11.08
2019-01-13T07:40:40.147Z,10.50
2019-01-13T07:43:09.312Z,10.50
2019-01-13T07:45:38.502Z,14.60
2019-01-13T07:48:07.726Z,10.32
2019-01-13T07:50:36.935Z,9.73
2019-01-13T07:53:08.446Z,10.10
2019-01-13T07:55:37.603Z,10.08
2019-01-13T07:58:06.861Z,11.55
2019-01-13T08:00:36.309Z,10.80
2019-01-13T08:03:06.578Z,9.43
2019-01-13T08:05:35.710Z,10.08
2019-01-13T08:08:05.033Z,8.53
2019-01-13T08:10:34.268Z,11.03
2019-01-13T08:13:03.539Z,7.62
2019-01-13T08:15:32.981Z,13.62
2019-01-13T08:18:02.201Z,8.60
2019-01-13T08:20:34.649Z,6.85
2019-01-13T08:23:04.054Z,7.12
2019-01-13T08:25:33.341Z,8.78
2019-01-13T08:28:02.590Z,10.18
2019-01-13T08:30:31.829Z,10.20
2019-01-13T08:33:01.048Z,7.75
2019-01-13T08:35:30.318Z,7.67
2019-01-13T08:37:59.514Z,7.80
2019-01-13T08:40:28.731Z,12.25
2019-01-13T08:42:59.729Z,9.40
2019-01-13T08:45:31.389Z,9.38
2019-01-13T08:48:00.797Z,7.80
2019-01-13T08:50:30.084Z,9.15
2019-01-13T08:52:59.365Z,10.08
2019-01-13T08:55:29.749Z,8.38
2019-01-13T08:57:59.160Z,10.00
2019-01-13T09:00:35.634Z,9.05
2019-01-13T09:03:06.663Z,10.03
2019-01-13T09:05:35.895Z,10.85
2019-01-13T09:08:05.795Z,11.03
2019-01-13T09:10:34.873Z,10.82
2019-01-13T09:13:05.188Z,10.55
2019-01-13T09:15:35.311Z,10.90
2019-01-13T09:18:04.979Z,11.90
2019-01-13T09:20:34.666Z,11.57
2019-01-13T09:23:05.787Z,10.88
2019-01-13T09:25:38.165Z,12.63
2019-01-13T09:28:08.641Z,13.62
2019-01-13T09:30:37.921Z,11.93
2019-01-13T09:33:07.252Z,12.82
2019-01-13T09:35:36.452Z,14.20
2019-01-13T09:38:06.847Z,16.80
2019-01-13T09:40:36.427Z,13.05
2019-01-13T09:43:06.063Z,14.23
2019-01-13T09:45:35.549Z,14.30
2019-01-13T09:48:06.137Z,14.78
2019-01-13T09:50:35.421Z,16.07
2019-01-13T09:53:12.028Z,15.15
2019-01-13T09:55:41.510Z,17.25
2019-01-13T09:58:11.270Z,16.15
2019-01-13T10:00:41.728Z,20.72
2019-01-13T10:03:13.908Z,17.62
2019-01-13T10:08:45.238Z,21.30
2019-01-13T10:11:17.984Z,20.20
2019-01-13T10:13:47.221Z,21.80
2019-01-13T10:16:16.692Z,20.05
2019-01-13T10:18:46.167Z,23.60
2019-01-13T10:21:15.662Z,23.10
2019-01-13T10:23:47.803Z,22.60
2019-01-13T10:26:17.158Z,22.07
2019-01-13T10:28:46.512Z,25.85
2019-01-13T10:31:15.768Z,26.45
2019-01-13T10:33:44.974Z,34.88
2019-01-13T10:36:14.416Z,31.45
2019-01-13T10:38:44.294Z,28.57
2019-01-13T10:41:13.837Z,34.90
2019-01-13T10:43:43.036Z,34.30
2019-01-13T10:46:12.250Z,29.30
2019-01-13T10:48:41.590Z,35.73
2019-01-13T10:51:11.305Z,33.18
2019-01-13T10:53:40.720Z,31.90
2019-01-13T10:56:11.852Z,35.17
2019-01-13T10:58:42.841Z,34.88
2019-01-13T11:01:12.773Z,32.38
2019-01-13T11:03:42.399Z,32.45
2019-01-13T11:06:12.052Z,33.15
2019-01-13T11:08:41.624Z,29.95
2019-01-13T11:14:12.231Z,33.30
2019-01-13T11:16:41.557Z,34.20
2019-01-13T11:19:11.541Z,29.25
2019-01-13T11:21:41.050Z,30.25
2019-01-13T11:24:12.170Z,30.95
2019-01-13T11:26:41.462Z,30.27
2019-01-13T11:29:10.981Z,29.90
2019-01-13T11:31:40.930Z,36.25
2019-01-13T11:34:10.300Z,36.38
2019-01-13T11:36:39.615Z,34.27
2019-01-13T11:39:14.204Z,34.15
2019-01-13T11:41:43.717Z,31.77
2019-01-13T11:44:16.806Z,34.90
2019-01-13T11:46:47.234Z,28.57
2019-01-13T11:49:16.860Z,32.65
2019-01-13T11:51:46.399Z,28.20
2019-01-13T11:54:15.704Z,25.65
2019-01-13T11:56:47.953Z,27.22
2019-01-13T11:59:18.518Z,24.40
2019-01-13T12:01:49.472Z,26.15
2019-01-13T12:04:18.928Z,25.50
2019-01-13T12:06:51.335Z,31.10
2019-01-13T12:09:20.791Z,21.12
2019-01-13T12:11:50.027Z,22.58
2019-01-13T12:14:20.803Z,20.68
2019-01-13T12:16:49.985Z,21.15
2019-01-13T12:19:19.301Z,22.37
2019-01-13T12:21:52.996Z,18.95
2019-01-13T12:24:23.236Z,20.55
2019-01-13T12:26:52.534Z,16.62
2019-01-13T12:29:21.753Z,17.60
2019-01-13T12:31:51.003Z,17.37
2019-01-13T12:34:26.067Z,18.57
2019-01-13T12:36:54.304Z,16.37
2019-01-13T12:39:23.581Z,13.78
2019-01-13T12:41:53.032Z,13.75
2019-01-13T12:44:24.585Z,15.23
2019-01-13T12:46:53.904Z,16.52
2019-01-13T12:49:23.070Z,14.45
2019-01-13T12:51:52.267Z,11.60
2019-01-13T12:54:23.872Z,12.33
2019-01-13T12:56:53.284Z,11.33
2019-01-13T12:59:22.523Z,10.08
2019-01-13T13:01:51.760Z,11.33
2019-01-13T13:04:20.931Z,9.93
2019-01-13T13:06:50.236Z,10.58
2019-01-13T13:09:19.515Z,9.83
2019-01-13T13:11:50.778Z,10.78
2019-01-13T13:14:21.840Z,8.95
2019-01-13T13:16:53.820Z,8.50
2019-01-13T13:19:29.832Z,8.80
2019-01-13T13:21:59.612Z,8.60
2019-01-13T13:24:31.891Z,7.80
2019-01-13T13:27:01.184Z,9.20
2019-01-13T13:29:30.642Z,10.88
2019-01-13T13:32:01.134Z,8.85
2019-01-13T13:34:33.582Z,7.05
2019-01-13T13:37:03.257Z,6.40
2019-01-13T13:39:34.829Z,7.70
2019-01-13T13:42:18.011Z,8.90
2019-01-13T13:44:50.156Z,8.73
2019-01-13T13:47:20.073Z,8.08
2019-01-13T13:49:49.311Z,8.00
2019-01-13T13:52:18.544Z,6.90
2019-01-13T13:54:47.786Z,7.25
2019-01-13T13:57:16.983Z,6.67
2019-01-13T13:59:52.449Z,5.65
2019-01-13T14:02:21.798Z,6.22
2019-01-13T14:04:53.339Z,9.65
2019-01-13T14:07:24.895Z,7.28
2019-01-13T14:09:57.741Z,6.40
2019-01-13T14:12:30.987Z,6.33
2019-01-13T14:15:00.186Z,6.00
2019-01-13T14:17:29.824Z,6.00
2019-01-13T14:19:59.044Z,6.80
2019-01-13T14:22:28.235Z,6.40
2019-01-13T14:25:00.161Z,6.50
2019-01-13T14:27:29.381Z,6.20
2019-01-13T14:29:58.621Z,6.58
2019-01-13T14:32:27.783Z,6.22
2019-01-13T14:34:59.354Z,6.25
2019-01-13T14:37:28.660Z,6.42
2019-01-13T14:39:57.867Z,7.83
2019-01-13T14:42:27.048Z,5.47
2019-01-13T14:44:58.894Z,6.65
2019-01-13T14:47:28.935Z,5.95
2019-01-13T14:49:58.154Z,7.00
2019-01-13T14:52:27.563Z,7.22
2019-01-13T14:54:57.329Z,6.83
2019-01-13T14:57:26.641Z,7.45
2019-01-13T14:59:55.879Z,6.70
2019-01-13T15:02:25.032Z,6.35
2019-01-13T15:04:54.328Z,6.83
2019-01-13T15:07:35.093Z,8.58
2019-01-13T15:10:06.065Z,8.13
2019-01-13T15:12:38.085Z,7.62
2019-01-13T15:15:08.924Z,9.88
2019-01-13T15:17:38.421Z,8.08
2019-01-13T15:20:18.056Z,8.50
2019-01-13T15:22:47.710Z,9.55
2019-01-13T15:25:20.274Z,9.70
2019-01-13T15:27:50.207Z,12.45
2019-01-13T15:30:22.465Z,9.68
2019-01-13T15:32:51.997Z,10.30
2019-01-13T15:35:21.224Z,11.00
2019-01-13T15:37:50.382Z,9.80
2019-01-13T15:40:20.247Z,11.65
2019-01-13T15:42:50.211Z,11.18
2019-01-13T15:45:19.465Z,12.13
2019-01-13T15:47:49.086Z,11.50
2019-01-13T15:50:20.900Z,14.07
2019-01-13T15:52:50.229Z,12.50
2019-01-13T15:55:19.667Z,12.80
2019-01-13T15:57:49.467Z,15.08
2019-01-13T16:00:21.476Z,19.67
2019-01-13T16:02:50.919Z,18.02
2019-01-13T16:05:20.794Z,17.87
2019-01-13T16:07:50.077Z,19.98
2019-01-13T16:10:22.736Z,19.35
2019-01-13T16:12:58.448Z,25.45
2019-01-13T16:15:34.370Z,22.15
2019-01-13T16:18:01.849Z,17.82
2019-01-13T16:20:42.256Z,17.50
2019-01-13T16:23:11.584Z,19.02
2019-01-13T16:25:43.147Z,19.70
2019-01-13T16:28:12.414Z,15.95
2019-01-13T16:30:41.666Z,18.17
2019-01-13T16:33:10.837Z,18.02
2019-01-13T16:35:40.290Z,18.27
2019-01-13T16:38:13.227Z,18.52
2019-01-13T16:40:43.001Z,18.82
2019-01-13T16:43:15.586Z,17.25
2019-01-13T16:45:44.867Z,15.85
2019-01-13T16:48:14.394Z,17.65
2019-01-13T16:50:45.288Z,15.05
2019-01-13T16:53:14.854Z,16.32
2019-01-13T16:55:45.098Z,19.48
2019-01-13T16:58:14.549Z,15.85
2019-01-13T17:00:45.133Z,22.73
2019-01-13T17:03:14.464Z,16.37
2019-01-13T17:05:44.165Z,17.05
2019-01-13T17:08:13.570Z,17.25
2019-01-13T17:10:43.014Z,19.70
2019-01-13T17:13:12.368Z,18.10
2019-01-13T17:15:41.679Z,14.58
2019-01-13T17:18:13.137Z,18.57
2019-01-13T17:20:52.896Z,19.95
2019-01-13T17:23:24.841Z,17.80
2019-01-13T17:25:56.524Z,18.80
2019-01-13T17:28:26.986Z,21.45
2019-01-13T17:31:00.232Z,15.32
2019-01-13T17:33:29.580Z,17.87
2019-01-13T17:35:58.912Z,15.60
2019-01-13T17:38:28.436Z,19.27
2019-01-13T17:40:57.830Z,18.73
2019-01-13T17:43:29.661Z,22.27
2019-01-13T17:46:01.076Z,15.08
2019-01-13T17:48:34.715Z,19.70
2019-01-13T17:51:17.940Z,13.48
2019-01-13T17:53:52.044Z,21.87
2019-01-13T17:56:25.264Z,12.47
2019-01-13T17:58:59.921Z,18.80
2019-01-13T18:01:33.733Z,14.93
2019-01-13T18:04:03.907Z,21.23
2019-01-13T18:06:33.975Z,17.35
2019-01-13T18:09:05.411Z,19.30
2019-01-13T18:11:35.177Z,14.78
2019-01-13T18:14:07.483Z,13.53
2019-01-13T18:16:48.148Z,12.90
2019-01-13T18:21:55.089Z,6.22
2019-01-13T18:24:27.623Z,10.48
2019-01-13T18:26:57.238Z,10.78
2019-01-13T18:29:26.843Z,8.18
2019-01-13T18:31:56.146Z,13.55
2019-01-13T18:34:25.642Z,8.25
2019-01-13T18:36:54.879Z,9.53
2019-01-13T18:39:28.448Z,8.55
2019-01-13T18:42:03.978Z,9.08
2019-01-13T18:44:34.707Z,7.22
2019-01-13T18:47:06.878Z,11.28
2019-01-13T18:49:36.186Z,9.75
2019-01-13T18:52:08.022Z,11.57
2019-01-13T18:54:37.312Z,10.15
2019-01-13T18:57:06.982Z,13.38
2019-01-13T18:59:39.270Z,12.68
2019-01-13T19:02:08.661Z,9.80
2019-01-13T19:04:37.898Z,19.52
2019-01-13T19:07:10.532Z,11.12
2019-01-13T19:09:43.692Z,19.62
2019-01-13T19:12:13.000Z,13.40
2019-01-13T19:14:49.404Z,10.58
2019-01-13T19:17:29.668Z,13.30
2019-01-13T19:20:19.866Z,9.88
2019-01-13T19:22:51.570Z,9.78
2019-01-13T19:25:32.109Z,8.65
2019-01-13T19:28:01.728Z,6.10
2019-01-13T19:30:32.800Z,5.50
2019-01-13T19:33:02.291Z,11.28
2019-01-13T19:35:33.053Z,7.55
2019-01-13T19:38:02.585Z,12.20
2019-01-13T19:40:32.269Z,5.15
2019-01-13T19:43:01.661Z,5.65
2019-01-13T19:45:31.126Z,9.15
2019-01-13T19:48:00.679Z,6.40
2019-01-13T19:50:29.846Z,9.15
2019-01-13T19:53:00.637Z,6.78
2019-01-13T19:55:32.705Z,28.12
2019-01-13T19:58:06.078Z,11.73
2019-01-13T20:00:37.049Z,16.25
2019-01-13T20:03:08.163Z,29.65
2019-01-13T20:05:41.628Z,8.50
2019-01-13T20:08:11.156Z,10.00
2019-01-13T20:10:44.388Z,11.85
2019-01-13T20:13:14.909Z,6.22
2019-01-13T20:15:44.209Z,7.78
2019-01-13T20:18:13.530Z,31.17
2019-01-13T20:20:43.240Z,8.95
2019-01-13T20:23:12.640Z,17.30
2019-01-13T20:25:44.356Z,17.42
2019-01-13T20:28:13.745Z,15.98
2019-01-13T20:30:45.919Z,13.08
2019-01-13T20:33:17.385Z,13.40
2019-01-13T20:35:46.872Z,24.05
2019-01-13T20:38:22.173Z,23.30
2019-01-13T20:40:51.897Z,40.65
2019-01-13T20:43:27.495Z,22.15
2019-01-13T20:45:58.323Z,29.15
2019-01-13T20:48:27.924Z,26.97
2019-01-13T20:50:59.794Z,24.63
2019-01-13T20:53:28.971Z,29.18
2019-01-13T20:55:59.405Z,14.10
2019-01-13T20:58:29.086Z,21.80
2019-01-13T21:01:01.906Z,19.48
2019-01-13T21:03:33.719Z,21.87
2019-01-13T21:06:03.097Z,15.70
2019-01-13T21:08:32.745Z,16.97
2019-01-13T21:11:02.266Z,17.87
2019-01-13T21:13:33.589Z,17.07
2019-01-13T21:16:07.337Z,15.28
2019-01-13T21:18:36.697Z,30.55
2019-01-13T21:21:06.656Z,18.15
2019-01-13T21:23:39.431Z,14.03
2019-01-13T21:26:11.198Z,12.28
2019-01-13T21:28:41.277Z,16.42
2019-01-13T21:31:12.051Z,10.32
2019-01-13T21:33:42.373Z,17.87
2019-01-13T21:36:15.391Z,18.23
2019-01-13T21:38:46.325Z,17.17
2019-01-13T21:41:16.566Z,12.93
2019-01-13T21:43:46.728Z,13.85
2019-01-13T21:46:20.481Z,13.65
2019-01-13T21:48:49.966Z,10.95
2019-01-13T21:51:20.356Z,14.78
2019-01-13T21:53:52.112Z,18.98
2019-01-13T21:56:21.677Z,16.60
2019-01-13T21:58:54.267Z,19.82
2019-01-13T22:01:24.446Z,18.67
2019-01-13T22:03:54.528Z,12.70
2019-01-13T22:06:24.900Z,17.45
2019-01-13T22:08:56.209Z,13.80
2019-01-13T22:11:25.882Z,15.20
2019-01-13T22:13:57.457Z,14.23
2019-01-13T22:16:26.825Z,18.37
2019-01-13T22:18:56.144Z,10.82
2019-01-13T22:21:25.504Z,12.43
2019-01-13T22:23:55.196Z,13.95
2019-01-13T22:26:27.078Z,17.40
2019-01-13T22:28:58.124Z,17.75
2019-01-13T22:31:27.556Z,27.05
2019-01-13T22:33:58.094Z,20.77
2019-01-13T22:36:27.352Z,27.70
2019-01-13T22:38:56.732Z,20.60
2019-01-13T22:41:26.776Z,12.90
2019-01-13T22:43:57.910Z,16.90
2019-01-13T22:46:27.106Z,18.85
2019-01-13T22:48:56.467Z,23.65
2019-01-13T22:51:25.804Z,22.07
2019-01-13T22:53:55.094Z,18.70
2019-01-13T22:56:24.647Z,17.05
2019-01-13T22:58:54.787Z,16.77
2019-01-13T23:01:36.942Z,25.45
2019-01-13T23:04:16.366Z,19.23
2019-01-13T23:06:46.018Z,16.23
2019-01-13T23:09:15.576Z,16.87
2019-01-13T23:11:47.046Z,17.23
2019-01-13T23:14:16.380Z,23.87
2019-01-13T23:16:45.872Z,23.85
2019-01-13T23:19:15.664Z,18.67
2019-01-13T23:21:47.888Z,21.23
2019-01-13T23:24:17.096Z,15.50
2019-01-13T23:26:46.308Z,21.20
2019-01-13T23:29:15.572Z,22.45
2019-01-13T23:31:44.854Z,19.67
2019-01-13T23:34:15.236Z,24.55
2019-01-13T23:36:44.950Z,25.90
2019-01-13T23:39:14.229Z,15.23
2019-01-13T23:41:43.497Z,17.45
2019-01-13T23:44:13.880Z,19.73
2019-01-13T23:46:43.064Z,15.38
2019-01-13T23:49:12.466Z,22.10
2019-01-13T23:51:41.780Z,13.95
2019-01-13T23:54:10.997Z,18.37
2019-01-13T23:56:40.247Z,13.95
2019-01-13T23:59:09.428Z,15.55
